createdAt,value
2018-01-07T00:01:49.462Z,17.77
2018-01-07T00:04:54.549Z,17.67
2018-01-07T00:08:00.152Z,18.23
2018-01-07T00:11:05.113Z,17.30
2018-01-07T00:14:10.462Z,15.80
2018-01-07T00:17:15.724Z,17.23
2018-01-07T00:20:21.343Z,17.13
2018-01-07T00:23:26.412Z,17.40
2018-01-07T00:26:31.428Z,16.50
2018-01-07T00:29:37.073Z,17.63
2018-01-07T00:32:43.163Z,16.20
2018-01-07T00:35:48.562Z,16.57
2018-01-07T00:38:53.766Z,16.03
2018-01-07T00:42:00.001Z,16.93
2018-01-07T00:45:06.445Z,16.30
2018-01-07T00:48:12.633Z,15.67
2018-01-07T00:51:17.913Z,16.50
2018-01-07T00:54:23.557Z,15.10
2018-01-07T00:57:29.485Z,16.10
2018-01-07T01:00:35.206Z,16.00
2018-01-07T01:03:40.342Z,15.67
2018-01-07T01:06:45.811Z,16.20
2018-01-07T01:09:51.230Z,15.40
2018-01-07T01:12:56.987Z,15.03
2018-01-07T01:16:02.938Z,14.73
2018-01-07T01:19:07.982Z,14.93
2018-01-07T01:22:13.817Z,15.33
2018-01-07T01:25:18.672Z,13.90
2018-01-07T01:28:23.618Z,14.60
2018-01-07T01:31:29.334Z,14.67
2018-01-07T01:34:34.938Z,15.57
2018-01-07T01:37:40.210Z,14.07
2018-01-07T01:40:45.137Z,13.53
2018-01-07T01:43:51.039Z,14.60
2018-01-07T01:46:56.662Z,14.20
2018-01-07T01:50:02.614Z,14.93
2018-01-07T01:53:08.391Z,15.90
2018-01-07T01:56:19.533Z,13.57
2018-01-07T01:59:25.157Z,13.40
2018-01-07T02:02:30.465Z,13.43
2018-01-07T02:05:35.778Z,12.47
2018-01-07T02:08:41.573Z,14.47
2018-01-07T02:11:47.155Z,14.30
2018-01-07T02:14:53.558Z,12.50
2018-01-07T02:17:58.935Z,13.17
2018-01-07T02:21:05.285Z,12.90
2018-01-07T02:24:10.705Z,13.57
2018-01-07T02:27:16.033Z,13.10
2018-01-07T02:30:21.629Z,12.40
2018-01-07T02:33:27.156Z,13.07
2018-01-07T02:36:32.052Z,13.20
2018-01-07T02:39:37.043Z,12.37
2018-01-07T02:42:42.801Z,13.03
2018-01-07T02:45:48.360Z,12.63
2018-01-07T02:48:53.414Z,11.97
2018-01-07T02:51:58.938Z,11.50
2018-01-07T02:55:04.563Z,11.87
2018-01-07T02:58:09.813Z,11.67
2018-01-07T03:01:15.937Z,12.57
2018-01-07T03:04:20.902Z,11.80
2018-01-07T03:07:26.186Z,11.90
2018-01-07T03:10:31.833Z,11.47
2018-01-07T03:13:37.214Z,12.13
2018-01-07T03:16:43.042Z,11.83
2018-01-07T03:19:48.306Z,11.33
2018-01-07T03:22:53.442Z,11.63
2018-01-07T03:25:58.777Z,11.33
2018-01-07T03:29:03.957Z,10.90
2018-01-07T03:32:10.474Z,9.37
2018-01-07T03:35:16.166Z,11.07
2018-01-07T03:38:22.547Z,10.97
2018-01-07T03:41:28.462Z,10.33
2018-01-07T03:44:33.278Z,10.00
2018-01-07T03:47:39.070Z,11.10
2018-01-07T03:50:44.186Z,9.20
2018-01-07T03:53:49.571Z,9.40
2018-01-07T03:56:55.419Z,10.00
2018-01-07T04:00:01.518Z,8.33
2018-01-07T04:03:07.037Z,8.70
2018-01-07T04:06:12.554Z,9.23
2018-01-07T04:09:18.311Z,8.37
2018-01-07T04:12:23.577Z,8.87
2018-01-07T04:15:29.154Z,8.70
2018-01-07T04:18:35.374Z,7.57
2018-01-07T04:21:41.099Z,8.00
2018-01-07T04:24:46.488Z,8.10
2018-01-07T04:27:52.961Z,7.73
2018-01-07T04:30:58.760Z,7.80
2018-01-07T04:34:04.411Z,8.40
2018-01-07T04:37:09.546Z,7.87
2018-01-07T04:40:15.225Z,9.50
2018-01-07T04:43:21.073Z,8.83
2018-01-07T04:46:26.302Z,8.63
2018-01-07T04:49:32.214Z,8.57
2018-01-07T04:52:37.730Z,7.97
2018-01-07T04:55:43.645Z,9.07
2018-01-07T04:58:48.689Z,9.50
2018-01-07T05:01:54.078Z,8.83
2018-01-07T05:04:59.221Z,9.50
2018-01-07T05:08:04.438Z,9.50
2018-01-07T05:11:09.682Z,9.30
2018-01-07T05:14:15.211Z,8.90
2018-01-07T05:17:20.747Z,9.97
2018-01-07T05:20:26.334Z,8.93
2018-01-07T05:23:33.023Z,8.80
2018-01-07T05:26:38.514Z,9.80
2018-01-07T05:29:44.658Z,10.80
2018-01-07T05:32:50.098Z,9.37
2018-01-07T05:35:54.850Z,10.23
2018-01-07T05:38:59.921Z,9.37
2018-01-07T05:42:05.473Z,11.27
2018-01-07T05:45:10.873Z,9.63
2018-01-07T05:48:15.913Z,9.93
2018-01-07T05:51:21.555Z,8.70
2018-01-07T05:54:26.623Z,8.60
2018-01-07T05:57:31.885Z,10.00
2018-01-07T06:00:37.526Z,9.20
2018-01-07T06:03:42.962Z,9.67
2018-01-07T06:06:48.542Z,9.43
2018-01-07T06:09:54.450Z,9.40
2018-01-07T06:13:00.142Z,9.40
2018-01-07T06:16:05.638Z,9.47
2018-01-07T06:19:10.972Z,10.30
2018-01-07T06:22:15.961Z,8.30
2018-01-07T06:25:22.310Z,10.07
2018-01-07T06:28:28.060Z,8.83
2018-01-07T06:31:33.351Z,10.63
2018-01-07T06:34:39.902Z,9.73
2018-01-07T06:37:44.738Z,9.87
2018-01-07T06:40:49.597Z,9.30
2018-01-07T06:43:54.594Z,9.30
2018-01-07T06:46:59.858Z,9.57
2018-01-07T06:50:04.790Z,8.40
2018-01-07T06:53:09.834Z,8.90
2018-01-07T06:56:14.729Z,9.07
2018-01-07T06:59:20.650Z,8.57
2018-01-07T07:02:25.957Z,9.03
2018-01-07T07:05:30.802Z,8.40
2018-01-07T07:08:37.105Z,7.47
2018-01-07T07:11:42.826Z,7.90
2018-01-07T07:14:47.950Z,7.67
2018-01-07T07:17:52.733Z,7.93
2018-01-07T07:20:58.118Z,7.57
2018-01-07T07:24:04.254Z,7.67
2018-01-07T07:27:09.766Z,7.80
2018-01-07T07:30:14.654Z,6.77
2018-01-07T07:33:20.293Z,7.50
2018-01-07T07:36:25.776Z,7.00
2018-01-07T07:39:31.249Z,7.00
2018-01-07T07:42:36.081Z,7.47
2018-01-07T07:45:40.949Z,7.03
2018-01-07T07:48:46.074Z,7.03
2018-01-07T07:51:51.209Z,7.10
2018-01-07T07:54:56.260Z,7.23
2018-01-07T07:58:01.088Z,7.10
2018-01-07T08:01:07.331Z,7.57
2018-01-07T08:04:13.550Z,8.00
2018-01-07T08:07:18.894Z,7.30
2018-01-07T08:10:24.670Z,6.47
2018-01-07T08:13:31.408Z,7.37
2018-01-07T08:16:37.198Z,7.63
2018-01-07T08:19:43.047Z,7.33
2018-01-07T08:22:50.714Z,8.00
2018-01-07T08:25:56.146Z,7.40
2018-01-07T08:29:01.463Z,7.40
2018-01-07T08:32:06.657Z,7.13
2018-01-07T08:35:13.011Z,7.20
2018-01-07T08:38:18.175Z,7.67
2018-01-07T08:41:23.034Z,6.60
2018-01-07T08:44:28.458Z,7.47
2018-01-07T08:47:34.094Z,6.57
2018-01-07T08:50:39.518Z,7.37
2018-01-07T08:53:44.965Z,6.60
2018-01-07T08:56:49.734Z,6.57
2018-01-07T08:59:55.562Z,7.10
2018-01-07T09:03:00.982Z,6.60
2018-01-07T09:06:06.762Z,5.80
2018-01-07T09:09:11.641Z,5.70
2018-01-07T09:12:16.870Z,6.50
2018-01-07T09:15:21.922Z,6.60
2018-01-07T09:18:26.745Z,6.00
2018-01-07T09:21:31.858Z,6.43
2018-01-07T09:24:37.586Z,7.00
2018-01-07T09:27:43.434Z,6.50
2018-01-07T09:30:49.029Z,6.40
2018-01-07T09:33:54.594Z,7.20
2018-01-07T09:37:00.091Z,7.00
2018-01-07T09:40:05.590Z,5.93
2018-01-07T09:43:10.673Z,7.00
2018-01-07T09:46:15.942Z,8.00
2018-01-07T09:49:21.834Z,7.27
2018-01-07T09:52:27.953Z,7.80
2018-01-07T09:55:33.314Z,6.67
2018-01-07T09:58:38.554Z,7.37
2018-01-07T10:01:43.869Z,6.83
2018-01-07T10:04:48.830Z,6.57
2018-01-07T10:07:53.698Z,7.10
2018-01-07T10:10:58.578Z,7.30
2018-01-07T10:14:04.373Z,6.73
2018-01-07T10:17:10.173Z,6.57
2018-01-07T10:20:16.249Z,7.17
2018-01-07T10:23:22.324Z,6.60
2018-01-07T10:26:27.149Z,6.27
2018-01-07T10:29:32.761Z,6.50
2018-01-07T10:32:38.204Z,6.43
2018-01-07T10:35:44.673Z,6.87
2018-01-07T10:38:50.010Z,5.77
2018-01-07T10:41:55.732Z,5.27
2018-01-07T10:45:01.937Z,5.53
2018-01-07T10:48:07.717Z,5.77
2018-01-07T10:51:13.297Z,6.23
2018-01-07T10:54:18.265Z,5.90
2018-01-07T10:57:24.458Z,5.40
2018-01-07T11:00:29.333Z,4.77
2018-01-07T11:03:34.477Z,4.57
2018-01-07T11:06:39.667Z,4.97
2018-01-07T11:09:44.903Z,4.47
2018-01-07T11:12:49.878Z,4.40
2018-01-07T11:15:55.482Z,5.10
2018-01-07T11:19:01.190Z,4.73
2018-01-07T11:22:06.034Z,4.40
2018-01-07T11:25:11.274Z,4.30
2018-01-07T11:28:16.316Z,4.03
2018-01-07T11:31:21.677Z,3.30
2018-01-07T11:34:27.148Z,3.80
2018-01-07T11:37:32.597Z,3.60
2018-01-07T11:40:38.161Z,4.23
2018-01-07T11:43:43.862Z,3.73
2018-01-07T11:46:50.302Z,3.90
2018-01-07T11:49:56.047Z,3.23
2018-01-07T11:53:01.970Z,2.90
2018-01-07T11:56:07.237Z,3.30
2018-01-07T11:59:12.510Z,3.23
2018-01-07T12:02:19.123Z,2.80
2018-01-07T12:05:23.934Z,3.13
2018-01-07T12:08:29.589Z,3.03
2018-01-07T12:11:35.154Z,3.17
2018-01-07T12:14:40.213Z,3.47
2018-01-07T12:17:46.066Z,3.10
2018-01-07T12:20:51.759Z,2.97
2018-01-07T12:23:57.565Z,3.23
2018-01-07T12:27:02.730Z,2.60
2018-01-07T12:30:08.138Z,3.10
2018-01-07T12:33:13.014Z,2.90
2018-01-07T12:36:18.462Z,2.70
2018-01-07T12:39:23.684Z,2.93
2018-01-07T12:42:29.528Z,3.10
2018-01-07T12:45:35.462Z,2.77
2018-01-07T12:48:40.757Z,2.30
2018-01-07T12:51:46.215Z,3.00
2018-01-07T12:54:51.665Z,2.33
2018-01-07T12:57:56.586Z,2.37
2018-01-07T13:01:02.286Z,2.50
2018-01-07T13:04:07.846Z,2.23
2018-01-07T13:07:13.337Z,2.47
2018-01-07T13:10:18.429Z,3.00
2018-01-07T13:13:23.914Z,3.30
2018-01-07T13:16:28.810Z,2.47
2018-01-07T13:19:33.630Z,2.60
2018-01-07T13:22:39.577Z,4.10
2018-01-07T13:25:45.462Z,3.90
2018-01-07T13:28:51.838Z,4.13
2018-01-07T13:31:56.991Z,4.50
2018-01-07T13:35:02.278Z,4.90
2018-01-07T13:38:08.014Z,4.97
2018-01-07T13:41:13.577Z,5.90
2018-01-07T13:44:19.282Z,4.27
2018-01-07T13:47:25.155Z,4.50
2018-01-07T13:50:31.418Z,4.83
2018-01-07T13:53:37.185Z,5.00
2018-01-07T13:56:42.406Z,3.70
2018-01-07T13:59:47.997Z,4.43
2018-01-07T14:02:53.729Z,3.87
2018-01-07T14:05:59.830Z,3.30
2018-01-07T14:09:06.269Z,4.63
2018-01-07T14:12:12.053Z,4.30
2018-01-07T14:15:17.370Z,4.13
2018-01-07T14:18:22.742Z,4.27
2018-01-07T14:21:28.415Z,3.27
2018-01-07T14:24:33.966Z,4.20
2018-01-07T14:27:40.237Z,4.10
2018-01-07T14:30:45.826Z,4.17
2018-01-07T14:33:50.565Z,4.40
2018-01-07T14:36:55.651Z,4.03
2018-01-07T14:40:01.445Z,3.73
2018-01-07T14:43:06.739Z,4.20
2018-01-07T14:46:12.410Z,4.00
2018-01-07T14:49:17.665Z,4.20
2018-01-07T14:52:22.850Z,4.23
2018-01-07T14:55:28.234Z,3.60
2018-01-07T14:58:33.658Z,4.00
2018-01-07T15:01:39.206Z,4.17
2018-01-07T15:04:45.630Z,4.23
2018-01-07T15:07:51.782Z,3.77
2018-01-07T15:10:57.158Z,4.70
2018-01-07T15:14:03.635Z,3.77
2018-01-07T15:17:09.319Z,4.23
2018-01-07T15:20:14.362Z,3.87
2018-01-07T15:23:19.639Z,3.80
2018-01-07T15:26:25.393Z,3.80
2018-01-07T15:29:30.524Z,3.57
2018-01-07T15:32:36.042Z,3.90
2018-01-07T15:35:41.719Z,3.33
2018-01-07T15:38:46.518Z,3.30
2018-01-07T15:41:52.115Z,3.50
2018-01-07T15:44:58.066Z,4.40
2018-01-07T15:48:03.738Z,4.47
2018-01-07T15:51:08.861Z,4.33
2018-01-07T15:54:13.972Z,4.27
2018-01-07T15:57:20.439Z,4.20
2018-01-07T16:00:25.713Z,3.43
2018-01-07T16:03:31.484Z,4.03
2018-01-07T16:06:37.397Z,4.57
2018-01-07T16:09:42.973Z,3.57
2018-01-07T16:12:49.290Z,4.07
2018-01-07T16:15:54.577Z,4.87
2018-01-07T16:19:00.349Z,4.57
2018-01-07T16:22:05.662Z,4.40
2018-01-07T16:25:10.914Z,4.47
2018-01-07T16:28:16.670Z,4.10
2018-01-07T16:31:21.994Z,4.87
2018-01-07T16:34:27.298Z,4.20
2018-01-07T16:37:33.174Z,4.83
2018-01-07T16:40:38.525Z,4.17
2018-01-07T16:43:44.905Z,4.30
2018-01-07T16:46:50.662Z,4.77
2018-01-07T16:49:55.938Z,4.30
2018-01-07T16:53:02.258Z,4.20
2018-01-07T16:56:07.910Z,4.03
2018-01-07T16:59:13.777Z,4.40
2018-01-07T17:02:19.476Z,4.93
2018-01-07T17:05:25.210Z,4.10
2018-01-07T17:08:30.685Z,4.57
2018-01-07T17:11:35.634Z,4.77
2018-01-07T17:14:41.601Z,4.33
2018-01-07T17:17:47.508Z,4.90
2018-01-07T17:20:52.661Z,4.57
2018-01-07T17:23:58.138Z,4.47
2018-01-07T17:27:03.660Z,3.63
2018-01-07T17:30:08.974Z,4.57
2018-01-07T17:33:14.562Z,4.57
2018-01-07T17:36:20.045Z,4.80
2018-01-07T17:39:25.119Z,5.17
2018-01-07T17:42:30.778Z,4.93
2018-01-07T17:45:35.666Z,4.80
2018-01-07T17:48:40.882Z,4.43
2018-01-07T17:51:46.861Z,5.10
2018-01-07T17:54:52.617Z,4.70
2018-01-07T17:57:58.218Z,4.77
2018-01-07T18:01:04.174Z,4.90
2018-01-07T18:04:09.969Z,4.47
2018-01-07T18:07:15.794Z,5.07
2018-01-07T18:10:22.422Z,5.17
2018-01-07T18:13:28.206Z,4.37
2018-01-07T18:16:33.822Z,4.27
2018-01-07T18:19:39.747Z,4.47
2018-01-07T18:22:44.557Z,4.23
2018-01-07T18:25:49.630Z,4.53
2018-01-07T18:28:56.206Z,4.93
2018-01-07T18:32:02.092Z,5.17
2018-01-07T18:35:07.278Z,4.93
2018-01-07T18:38:12.302Z,5.27
2018-01-07T18:41:17.718Z,4.50
2018-01-07T18:44:23.209Z,4.77
2018-01-07T18:47:28.622Z,4.50
2018-01-07T18:50:33.715Z,4.90
2018-01-07T18:53:39.413Z,5.23
2018-01-07T18:56:44.758Z,5.30
2018-01-07T18:59:49.805Z,4.93
2018-01-07T19:02:55.586Z,4.90
2018-01-07T19:06:01.283Z,4.63
2018-01-07T19:09:06.926Z,4.70
2018-01-07T19:12:13.079Z,5.30
2018-01-07T19:15:19.103Z,5.30
2018-01-07T19:18:24.642Z,5.40
2018-01-07T19:21:30.721Z,4.93
2018-01-07T19:24:36.593Z,5.10
2018-01-07T19:27:41.429Z,4.97
2018-01-07T19:30:47.138Z,5.67
2018-01-07T19:33:52.338Z,5.20
2018-01-07T19:36:57.274Z,5.40
2018-01-07T19:40:03.614Z,5.13
2018-01-07T19:43:09.062Z,5.77
2018-01-07T19:46:13.894Z,5.43
2018-01-07T19:49:19.939Z,5.23
2018-01-07T19:52:25.050Z,5.70
2018-01-07T19:55:31.641Z,6.00
2018-01-07T19:58:36.813Z,5.57
2018-01-07T20:01:42.653Z,5.20
2018-01-07T20:04:48.325Z,6.07
2018-01-07T20:07:53.439Z,5.50
2018-01-07T20:10:58.668Z,6.20
2018-01-07T20:14:04.265Z,5.40
2018-01-07T20:17:10.014Z,5.27
2018-01-07T20:20:15.146Z,6.53
2018-01-07T20:23:19.990Z,5.30
2018-01-07T20:26:25.226Z,6.20
2018-01-07T20:29:30.673Z,5.57
2018-01-07T20:32:37.302Z,6.20
2018-01-07T20:35:42.534Z,5.90
2018-01-07T20:38:47.823Z,5.30
2018-01-07T20:41:54.182Z,6.17
2018-01-07T20:45:00.818Z,5.83
2018-01-07T20:48:06.156Z,5.30
2018-01-07T20:51:11.811Z,5.73
2018-01-07T20:54:16.911Z,5.27
2018-01-07T20:57:21.919Z,5.00
2018-01-07T21:00:27.186Z,6.00
2018-01-07T21:03:32.761Z,6.10
2018-01-07T21:06:38.135Z,5.67
2018-01-07T21:09:43.490Z,6.33
2018-01-07T21:12:49.542Z,6.37
2018-01-07T21:15:54.790Z,6.97
2018-01-07T21:19:00.678Z,6.60
2018-01-07T21:22:05.722Z,6.20
2018-01-07T21:25:10.878Z,6.60
2018-01-07T21:28:15.727Z,6.50
2018-01-07T21:31:21.015Z,6.70
2018-01-07T21:34:27.062Z,6.60
2018-01-07T21:37:32.138Z,6.33
2018-01-07T21:40:37.232Z,5.70
2018-01-07T21:43:43.326Z,7.00
2018-01-07T21:46:48.418Z,7.13
2018-01-07T21:49:54.126Z,5.97
2018-01-07T21:53:01.022Z,5.90
2018-01-07T21:56:06.894Z,6.13
2018-01-07T21:59:12.742Z,6.40
2018-01-07T22:02:27.762Z,6.33
2018-01-07T22:05:32.739Z,6.70
2018-01-07T22:08:38.605Z,6.00
2018-01-07T22:11:44.191Z,7.67
2018-01-07T22:14:49.681Z,6.70
2018-01-07T22:17:54.714Z,6.67
2018-01-07T22:21:08.475Z,7.00
2018-01-07T22:24:13.746Z,6.20
2018-01-07T22:27:20.091Z,7.00
2018-01-07T22:30:25.253Z,6.50
2018-01-07T22:33:30.576Z,5.50
2018-01-07T22:36:35.988Z,6.43
2018-01-07T22:39:44.341Z,6.60
2018-01-07T22:42:51.256Z,6.20
2018-01-07T22:45:56.889Z,6.43
2018-01-07T22:49:02.508Z,6.70
2018-01-07T22:52:08.128Z,6.90
2018-01-07T22:55:13.546Z,6.10
2018-01-07T22:58:18.550Z,6.33
2018-01-07T23:01:25.030Z,6.00
2018-01-07T23:04:30.457Z,7.73
2018-01-07T23:07:36.569Z,6.27
2018-01-07T23:10:41.722Z,6.93
2018-01-07T23:13:46.649Z,6.23
2018-01-07T23:16:51.416Z,6.90
2018-01-07T23:19:57.924Z,6.33
2018-01-07T23:23:02.922Z,6.20
2018-01-07T23:26:08.658Z,5.90
2018-01-07T23:29:14.253Z,7.47
2018-01-07T23:32:19.969Z,7.07
2018-01-07T23:35:25.663Z,7.10
2018-01-07T23:38:31.345Z,7.43
2018-01-07T23:41:37.789Z,7.70
2018-01-07T23:44:42.577Z,7.53
2018-01-07T23:47:48.054Z,8.60
2018-01-07T23:50:54.054Z,8.00
2018-01-07T23:53:59.648Z,7.93
2018-01-07T23:57:05.399Z,7.73
